IT-0151 weather

Pegasus Flying Club
Lignano, Veneto, Italy

Public forecast

Using degrees Celsius for public forecast. Weather courtesy of forecast.io.

METAR (pilot weather report)

Report is more than 2 hours old.

Closest report is Rivolto Air Base, 18.6 nm (34.4 km) N. Retrieved 2019/09/23 13:55 UTC (5 hours ago):

LIPI 231355Z 20007KT 7000 -RA BR SCT015 SCT030 15/14 Q1011 RERA RMK OVC VIS MIN 5000NE WIND THR06 /////KT WIND THR24 27005KT WHT

TAF (pilot weather forecast)

Forecast is more than 12 hours old.

Closest forecast is Rivolto Air Base, 18.6 nm (34.4 km) N. Retrieved 2017/11/16 12:24 UTC (2 years ago):

TAF TAF LIPI 161100Z 1612/1624 08013KT CAVOK BECMG 1616/1618 VRB05KT 9999 FEW040 SCT090